Otay Mesa Border Station Data

Red Flag Warning: No
Fire Weather Zone: 243
SDGE Region: Metro
Lat/Lon: 32.558/-116.9

Observations

Time Wind Speed/Gust Temp(F) RH Fuel Moist Fuel Temp(F) Dewpt(F) Tmax(F) Tmin(F) Accum Precip 10-min Precip SL Press(mb)
2/27 11:40pm 306 5 G 7 52° 97% - - 51° 56.3° 50.4° - - -
2/27 11:20pm 331 7 G 11 52° 96% - - 51° 56.3° 50.4° - - -
2/27 11:10pm 306 8 G 11 53° 96% - - 51° 56.3° 50.4° - - -
2/27 11:00pm 287 12 G 19 53° 95% - - 52° 56.3° 50.4° - - -
2/27 10:50pm 268 14 G 19 54° 93% - - 52° 56.3° 50.4° - - -
2/27 10:40pm 188 7 G 18 55° 94% - - 53° 56.3° 50.4° - - -
2/27 10:30pm 196 6 G 11 54° 94% - - 53° 56.3° 50.4° - - -
2/27 10:20pm 198 8 G 13 55° 94% - - 53° 56.3° 50.4° - - -
2/27 10:10pm 195 10 G 15 55° 93% - - 53° 56.3° 50.4° - - -
2/27 10:00pm 195 7 G 12 55° 91% - - 52° 56.3° 50.4° - - -
2/27 9:50pm 193 6 G 8 55° 90% - - 52° 56.3° 50.4° - - -
2/27 9:40pm 186 10 G 15 55° 89% - - 52° 56.3° 50.4° - - -
2/27 9:30pm 185 6 G 15 55° 90% - - 52° 56.3° 50.4° - - -
2/27 9:20pm 135 2 G 4 55° 91% - - 52° 56.3° 50.4° - - -
2/27 9:10pm 122 4 G 7 55° 91% - - 52° 56.3° 50.4° - - -
2/27 9:00pm 131 4 G 8 55° 91% - - 52° 56.3° 50.4° - - -
2/27 8:50pm 159 4 G 8 55° 91% - - 52° 56.3° 50.4° - - -
2/27 8:40pm 171 5 G 8 55° 90% - - 52° 56.3° 50.4° - - -
2/27 8:30pm 188 8 G 12 55° 88% - - 52° 56.3° 50.4° - - -
2/27 8:20pm 170 4 G 9 55° 88% - - 52° 56.3° 50.4° - - -
2/27 8:10pm 139 5 G 9 55° 89% - - 52° 56.3° 50.4° - - -
2/27 8:00pm 151 5 G 10 55° 90% - - 52° 56.3° 50.4° - - -
2/27 7:50pm 134 5 G 10 54° 90% - - 52° 56.3° 50.4° - - -
2/27 7:40pm 124 7 G 11 55° 89% - - 51° 56.3° 50.4° - - -
2/27 7:30pm 114 8 G 12 54° 89% - - 51° 56.3° 50.4° - - -
2/27 7:20pm 114 8 G 12 54° 89% - - 51° 56.3° 50.4° - - -
2/27 7:10pm 124 7 G 10 54° 90% - - 52° 56.3° 50.4° - - -
2/27 7:00pm 131 7 G 10 55° 90% - - 52° 56.3° 50.4° - - -
2/27 6:50pm 138 7 G 11 55° 90% - - 52° 56.3° 50.4° - - -
2/27 6:40pm 152 5 G 10 55° 91% - - 52° 56.3° 50.4° - - -
2/27 6:30pm 145 5 G 8 55° 91% - - 52° 56.3° 50.4° - - -
2/27 6:20pm 158 5 G 9 55° 91% - - 52° 56.3° 50.4° - - -
2/27 6:10pm 167 4 G 7 55° 90% - - 52° 56.3° 50.4° - - -
2/27 6:00pm 153 4 G 7 55° 89% - - 52° 56.3° 50.4° - - -
2/27 5:50pm 120 7 G 10 55° 88% - - 52° 56.3° 50.4° - - -
2/27 5:40pm 118 7 G 9 55° 88% - - 52° 56.3° 50.4° - - -
2/27 5:30pm 119 7 G 10 55° 88% - - 52° 56.3° 50.4° - - -
2/27 5:20pm 111 7 G 10 55° 88% - - 52° 56.3° 50.4° - - -
2/27 5:10pm 112 6 G 9 55° 89% - - 52° 56.3° 50.4° - - -
2/27 5:00pm 134 5 G 7 56° 88% - - 52° 56.3° 50.4° - - -
2/27 4:50pm 153 4 G 8 56° 90% - - 53° 56.3° 50.4° - - -
2/27 4:40pm 164 4 G 6 56° 90% - - 53° 56.3° 50.4° - - -
2/27 4:30pm 147 4 G 8 56° 89% - - 52° 56.3° 50.4° - - -
2/27 4:20pm 128 5 G 7 56° 89% - - 53° 56.3° 50.4° - - -
2/27 4:10pm 124 3 G 7 55° 91% - - 53° 56.3° 50.4° - - -
2/27 4:00pm 159 5 G 9 56° 91% - - 53° 56.3° 50.4° - - -
2/27 3:50pm 174 5 G 9 55° 91% - - 53° 56.3° 50.4° - - -
2/27 3:40pm 167 9 G 15 55° 92% - - 53° 56.3° 50.4° - - -
2/27 3:30pm 168 7 G 12 55° 94% - - 53° 56.3° 50.4° - - -
2/27 3:20pm 157 5 G 9 55° 94% - - 53° 56.3° 50.4° - - -
2/27 3:10pm 152 6 G 8 55° 93% - - 53° 56.3° 50.4° - - -
2/27 3:00pm 166 6 G 12 55° 93% - - 53° 56.3° 50.4° - - -
2/27 2:50pm 175 7 G 13 55° 93% - - 53° 56.3° 50.4° - - -
2/27 2:40pm 165 4 G 9 55° 93% - - 53° 56.3° 50.4° - - -
2/27 2:30pm 168 5 G 10 55° 93% - - 53° 56.3° 50.4° - - -
2/27 2:20pm 175 6 G 11 55° 93% - - 53° 56.3° 50.4° - - -
2/27 2:10pm 174 7 G 11 55° 92% - - 53° 56.3° 50.4° - - -
2/27 2:00pm 175 8 G 15 55° 92% - - 53° 56.3° 50.4° - - -
2/27 1:50pm 178 8 G 13 55° 91% - - 52° 56.3° 50.4° - - -
2/27 1:40pm 180 9 G 17 55° 91% - - 52° 56.3° 50.4° - - -
2/27 1:30pm 162 8 G 13 55° 90% - - 52° 56.3° 50.4° - - -
2/27 1:20pm 179 13 G 21 55° 90% - - 52° 56.3° 50.4° - - -
2/27 1:10pm 171 11 G 21 55° 92% - - 53° 56.3° 50.4° - - -
2/27 1:00pm 162 9 G 20 55° 93% - - 53° 56.3° 50.4° - - -
2/27 12:50pm 183 12 G 20 55° 92% - - 52° 56.3° 50.4° - - -
2/27 12:40pm 187 11 G 20 55° 92% - - 53° 56.3° 50.4° - - -
2/27 12:30pm 189 10 G 19 55° 91% - - 52° 56.3° 50.4° - - -
2/27 12:20pm 199 11 G 19 55° 91% - - 52° 56.3° 50.4° - - -
2/27 12:10pm 203 11 G 21 55° 92% - - 53° 56.3° 50.4° - - -
2/27 12:00pm 192 13 G 20 55° 91% - - 52° 56.3° 50.4° - - -
2/27 11:50am 185 12 G 19 55° 90% - - 52° 56.3° 50.4° - - -
2/27 11:40am 189 12 G 21 55° 91% - - 52° 56.3° 50.4° - - -
2/27 11:30am 192 11 G 18 55° 91% - - 53° 56.3° 50.4° - - -
2/27 11:20am 180 8 G 17 55° 91% - - 53° 56.3° 50.4° - - -
2/27 11:10am 179 8 G 12 55° 91% - - 52° 56.3° 50.4° - - -
2/27 11:00am 177 7 G 13 55° 91% - - 52° 56.3° 50.4° - - -
2/27 10:50am 169 9 G 18 55° 90% - - 52° 56.3° 50.4° - - -
2/27 10:40am 187 11 G 18 55° 90% - - 52° 56.3° 50.4° - - -
2/27 10:30am 189 9 G 14 55° 90% - - 52° 56.3° 50.4° - - -
2/27 10:20am 184 8 G 14 55° 90% - - 53° 56.3° 50.4° - - -
2/27 10:10am 188 11 G 18 56° 91% - - 53° 56.3° 50.4° - - -
2/27 10:00am 181 8 G 18 56° 91% - - 53° 56.3° 50.4° - - -
2/27 9:50am 179 9 G 16 56° 91% - - 53° 56.3° 50.4° - - -
2/27 9:40am 190 10 G 17 56° 89% - - 53° 56.3° 50.4° - - -
2/27 9:30am 227 6 G 14 56° 92% - - 53° 56.1° 50.4° - - -
2/27 9:20am 203 5 G 11 56° 91% - - 53° 56.1° 50.4° - - -
2/27 9:10am 122 4 G 9 56° 91% - - 53° 56.1° 50.4° - - -
2/27 9:00am 125 8 G 17 56° 91% - - 53° 56.1° 50.4° - - -
2/27 8:50am 135 7 G 14 55° 91% - - 53° 56.1° 50.4° - - -
2/27 8:40am 154 8 G 18 55° 92% - - 53° 56.1° 50.4° - - -
2/27 8:30am 153 5 G 14 55° 92% - - 53° 56° 50.4° - - -
2/27 8:20am 147 8 G 16 55° 93% - - 53° 55.8° 50.4° - - -
2/27 8:10am 150 8 G 14 55° 94% - - 53° 55.8° 50.4° - - -
2/27 8:00am 163 7 G 13 55° 94% - - 53° 55.8° 50.4° - - -
2/27 7:50am 163 7 G 12 55° 94% - - 53° 55.8° 50.4° - - -
2/27 7:40am 177 7 G 13 55° 93% - - 53° 55.8° 50.4° - - -
2/27 7:30am 181 7 G 15 55° 93% - - 53° 55.8° 50.4° - - -
2/27 7:20am 166 6 G 12 55° 94% - - 53° 55.5° 50.4° - - -
2/27 7:10am 157 4 G 11 55° 94% - - 53° 55.5° 50.4° - - -
2/27 7:00am 168 5 G 9 55° 95% - - 54° 55.5° 50.4° - - -
2/27 6:50am 158 4 G 7 55° 96% - - 54° 55.5° 50.4° - - -
2/27 6:40am 152 5 G 9 55° 96% - - 54° 55.5° 50.4° - - -
2/27 6:30am 142 4 G 7 55° 96% - - 54° 55.5° 50.4° - - -
2/27 6:20am 157 4 G 9 55° 96% - - 54° 55.5° 50.4° - - -
2/27 6:10am 167 5 G 9 55° 96% - - 54° 55.5° 50.4° - - -
2/27 6:00am 173 6 G 11 55° 96% - - 54° 55.5° 50.4° - - -
2/27 5:50am 182 6 G 11 55° 96% - - 54° 55.5° 50.4° - - -
2/27 5:40am 168 7 G 13 55° 96% - - 54° 55.5° 50.4° - - -
2/27 5:30am 164 7 G 11 55° 96% - - 54° 55.5° 50.4° - - -
2/27 5:20am 170 7 G 11 55° 96% - - 54° 55.3° 50.4° - - -
2/27 5:10am 159 5 G 11 55° 96% - - 53° 55.2° 50.4° - - -
2/27 5:00am 141 4 G 10 54° 95% - - 53° 55.2° 50.4° - - -
2/27 4:50am 139 6 G 9 55° 94% - - 53° 55.2° 50.4° - - -
2/27 4:40am 135 6 G 12 55° 93% - - 53° 55.2° 50.4° - - -
2/27 4:30am 125 8 G 13 55° 93% - - 53° 55.2° 50.4° - - -
2/27 4:20am 119 8 G 13 54° 93% - - 53° 55.2° 50.4° - - -
2/27 4:10am 121 8 G 13 54° 93% - - 52° 55.2° 50.4° - - -
2/27 4:00am 116 10 G 13 55° 92% - - 52° 55.2° 50.4° - - -
2/27 3:50am 110 9 G 13 55° 91% - - 52° 55.2° 50.4° - - -
2/27 3:40am 103 10 G 15 55° 91% - - 52° 55.1° 50.4° - - -
2/27 3:30am 102 10 G 15 54° 92% - - 52° 55° 50.4° - - -
2/27 3:20am 99 10 G 13 54° 93% - - 52° 54.7° 50.4° - - -
2/27 3:10am 108 8 G 11 54° 93% - - 52° 54.3° 50.4° - - -
2/27 3:00am 114 8 G 11 54° 93% - - 52° 54.3° 50.4° - - -
2/27 2:50am 115 8 G 11 54° 93% - - 52° 54.3° 50.4° - - -
2/27 2:40am 116 7 G 12 54° 93% - - 52° 54.3° 50.4° - - -
2/27 2:30am 116 7 G 10 54° 93% - - 52° 54.2° 50.4° - - -
2/27 2:20am 109 7 G 10 54° 93% - - 52° 54.1° 50.4° - - -
2/27 2:10am 120 6 G 11 54° 93% - - 52° 54.1° 50.4° - - -
2/27 2:00am 108 7 G 11 53° 94% - - 52° 54° 50.4° - - -
2/27 1:50am 134 4 G 7 53° 95% - - 52° 53.6° 50.4° - - -
2/27 1:40am 139 4 G 6 52° 97% - - 51° 53.1° 50.4° - - -
2/27 1:30am 130 3 G 5 52° 97% - - 51° 52.4° 50.4° - - -
2/27 1:20am 129 3 G 5 52° 97% - - 51° 52.3° 50.4° - - -
2/27 1:10am 165 2 G 4 51° 97% - - 51° 52.1° 50.4° - - -
2/27 1:00am 139 2 G 3 51° 96% - - 50° 51.8° 50.4° - - -
2/27 12:50am 144 2 G 4 51° 96% - - 50° 51.6° 50.4° - - -
2/27 12:40am 140 3 G 4 51° 96% - - 50° 51.4° 50.4° - - -
2/27 12:30am 130 3 G 4 51° 96% - - 50° 51.4° 50.4° - - -
2/27 12:20am 145 3 G 4 51° 96% - - 50° 51.3° 50.4° - - -
2/27 12:10am 134 3 G 4 51° 95% - - 50° 51.3° 50.4° - - -
2/27 12:00am 136 3 G 4 51° 95% - - 49° 57.8° 46.9° - - -
2/26 11:50pm 155 2 G 3 51° 95% - - 49° 57.8° 46.9° - - -
2/26 11:40pm 142 1 G 2 51° 94% - - 49° 57.8° 46.9° - - -
2/26 11:30pm 68 0 G 1 51° 93% - - 49° 57.8° 46.9° - - -
2/26 11:20pm 81 1 G 2 51° 92% - - 49° 57.8° 46.9° - - -
2/26 11:10pm 118 0 G 1 52° 91% - - 49° 57.8° 46.9° - - -
2/26 11:00pm 209 1 G 2 52° 90% - - 49° 57.8° 46.9° - - -
2/26 10:50pm 220 2 G 3 52° 89% - - 49° 57.8° 46.9° - - -
2/26 10:40pm 189 2 G 3 52° 90% - - 49° 57.8° 46.9° - - -
2/26 10:30pm 130 1 G 2 52° 92% - - 49° 57.8° 46.9° - - -
2/26 10:20pm 116 1 G 2 52° 92% - - 50° 57.8° 46.9° - - -
2/26 10:10pm 64 3 G 3 52° 91% - - 49° 57.8° 46.9° - - -
2/26 10:00pm 44 1 G 3 52° 91% - - 49° 57.8° 46.9° - - -
2/26 9:50pm 78 0 G 2 52° 90% - - 49° 57.8° 46.9° - - -
2/26 9:40pm 59 1 G 2 52° 90% - - 49° 57.8° 46.9° - - -
2/26 9:30pm 303 1 G 2 52° 90% - - 49° 57.8° 46.9° - - -
2/26 9:20pm 66 1 G 1 52° 90% - - 49° 57.8° 46.9° - - -
2/26 9:10pm 317 1 G 2 52° 90% - - 49° 57.8° 46.9° - - -
2/26 9:00pm 37 1 G 2 52° 90% - - 49° 57.8° 46.9° - - -
2/26 8:50pm 22 2 G 3 52° 90% - - 49° 57.8° 46.9° - - -
2/26 8:40pm 175 1 G 3 52° 90% - - 49° 57.8° 46.9° - - -
2/26 8:30pm 231 2 G 4 52° 90% - - 49° 57.8° 46.9° - - -
2/26 8:20pm 235 4 G 7 52° 90% - - 49° 57.8° 46.9° - - -
2/26 8:10pm 257 4 G 6 52° 89% - - 49° 57.8° 46.9° - - -
2/26 8:00pm 247 3 G 7 52° 90% - - 49° 57.8° 46.9° - - -
2/26 7:50pm 291 2 G 3 52° 90% - - 49° 57.8° 46.9° - - -
2/26 7:40pm 296 2 G 3 52° 90% - - 49° 57.8° 46.9° - - -
2/26 7:30pm 258 4 G 6 53° 89% - - 49° 57.8° 46.9° - - -
2/26 7:20pm 226 5 G 7 53° 90% - - 50° 57.8° 46.9° - - -
2/26 7:10pm 210 6 G 9 53° 90% - - 50° 57.8° 46.9° - - -
2/26 7:00pm 208 6 G 10 53° 90% - - 50° 57.8° 46.9° - - -
2/26 6:50pm 189 5 G 11 53° 91% - - 50° 57.8° 46.9° - - -
2/26 6:40pm 198 4 G 7 53° 92% - - 50° 57.8° 46.9° - - -
2/26 6:30pm 208 4 G 7 53° 91% - - 50° 57.8° 46.9° - - -
2/26 6:20pm 215 5 G 8 53° 91% - - 50° 57.8° 46.9° - - -
2/26 6:10pm 214 5 G 7 53° 87% - - 49° 57.8° 46.9° - - -
2/26 6:00pm 216 4 G 6 53° 87% - - 49° 57.8° 46.9° - - -
2/26 5:50pm 215 5 G 8 53° 86% - - 49° 57.8° 46.9° - - -
2/26 5:40pm 209 6 G 8 53° 84% - - 49° 57.8° 46.9° - - -
2/26 5:30pm 212 6 G 9 54° 83% - - 49° 57.8° 46.9° - - -
2/26 5:20pm 215 7 G 10 54° 82% - - 48° 57.8° 46.9° - - -
2/26 5:10pm 212 7 G 10 54° 81% - - 48° 57.8° 46.9° - - -
2/26 5:00pm 218 6 G 11 54° 80% - - 48° 57.8° 46.9° - - -